Roquetas de Mar, Spain
Current Conditions -  °F | °C
As of 1:30 PM on Friday 24 Oct 2014 (Local Time) from LEAM Reporting Station
Clear Clear  
Wind Chill: 73°   Ceiling: Unl
Heat Index: 73°   Visibility: 6mi
Dew Point: 59°   Wind: 3mph
Humidity: 61%   Direction: 200°SSW
Pressure: 30.03"   Gusts: NA
Location:  36.76°N, 2.61°W
Report Text: LEAM 241130Z 20003KT 170V250 CAVOK 23/15 Q1017
Loading
Personal Weather Stations






























Interactive Weather Map
Tropical Storm Tracking
New forecast layout! Learn more

10-Day Weather Forecast

Advertisements
Track Severe Weather on mobile